createdAt,value
2019-04-05T00:00:30.738Z,53.47
2019-04-05T00:03:00.208Z,55.30
2019-04-05T00:05:29.608Z,56.93
2019-04-05T00:07:59.032Z,55.27
2019-04-05T00:10:28.367Z,55.20
2019-04-05T00:12:57.909Z,55.27
2019-04-05T00:15:27.299Z,58.67
2019-04-05T00:17:56.684Z,55.57
2019-04-05T00:20:26.068Z,54.07
2019-04-05T00:22:55.402Z,58.00
2019-04-05T00:25:24.755Z,54.07
2019-04-05T00:27:54.153Z,55.77
2019-04-05T00:30:23.515Z,55.50
2019-04-05T00:32:53.056Z,56.47
2019-04-05T00:35:22.430Z,56.57
2019-04-05T00:37:51.752Z,59.83
2019-04-05T00:40:21.080Z,57.07
2019-04-05T00:42:50.456Z,57.03
2019-04-05T00:45:27.964Z,59.80
2019-04-05T00:47:51.997Z,59.10
2019-04-05T00:50:21.293Z,58.47
2019-04-05T00:52:50.735Z,61.93
2019-04-05T00:55:20.155Z,60.27
2019-04-05T00:57:49.647Z,62.60
2019-04-05T01:00:20.618Z,62.03
2019-04-05T01:02:50.063Z,62.17
2019-04-05T01:05:19.446Z,66.17
2019-04-05T01:07:49.186Z,63.57
2019-04-05T01:10:19.036Z,69.03
2019-04-05T01:12:48.488Z,63.63
2019-04-05T01:15:17.932Z,65.27
2019-04-05T01:17:47.331Z,64.77
2019-04-05T01:20:16.796Z,63.83
2019-04-05T01:22:47.509Z,63.80
2019-04-05T01:25:17.358Z,64.63
2019-04-05T01:27:48.436Z,64.23
2019-04-05T01:30:19.276Z,65.73
2019-04-05T01:32:48.810Z,66.50
2019-04-05T01:35:18.370Z,65.43
2019-04-05T01:37:47.881Z,65.40
2019-04-05T01:40:17.431Z,63.50
2019-04-05T01:42:46.998Z,64.73
2019-04-05T01:45:16.429Z,62.83
2019-04-05T01:47:45.848Z,63.97
2019-04-05T01:50:15.476Z,61.90
2019-04-05T01:52:45.427Z,61.27
2019-04-05T01:55:15.008Z,60.67
2019-04-05T01:57:44.451Z,60.10
2019-04-05T02:00:14.028Z,59.97
2019-04-05T02:02:43.657Z,61.13
2019-04-05T02:05:13.603Z,59.43
2019-04-05T02:07:42.995Z,56.17
2019-04-05T02:10:12.541Z,58.70
2019-04-05T02:12:42.002Z,59.57
2019-04-05T02:15:13.840Z,57.80
2019-04-05T02:17:43.275Z,59.43
2019-04-05T02:20:12.805Z,59.70
2019-04-05T02:22:42.243Z,60.73
2019-04-05T02:25:11.664Z,61.47
2019-04-05T02:27:41.096Z,59.90
2019-04-05T02:30:10.614Z,58.00
2019-04-05T02:32:40.163Z,56.60
2019-04-05T02:35:10.122Z,58.13
2019-04-05T02:37:39.463Z,59.43
2019-04-05T02:40:12.359Z,57.93
2019-04-05T02:42:44.922Z,54.97
2019-04-05T02:45:15.994Z,61.93
2019-04-05T02:47:51.904Z,60.00
2019-04-05T02:50:23.478Z,58.40
2019-04-05T02:52:56.002Z,59.23
2019-04-05T02:55:27.530Z,66.47
2019-04-05T02:58:01.331Z,59.70
2019-04-05T03:00:32.546Z,64.77
2019-04-05T03:03:03.663Z,58.73
2019-04-05T03:05:33.323Z,62.87
2019-04-05T03:08:02.898Z,57.43
2019-04-05T03:11:22.776Z,59.13
2019-04-05T03:13:54.242Z,62.17
2019-04-05T03:16:40.741Z,63.43
2019-04-05T03:19:10.515Z,62.53
2019-04-05T03:21:43.292Z,57.37
2019-04-05T03:24:17.371Z,60.73
2019-04-05T03:26:51.835Z,61.43
2019-04-05T03:29:21.264Z,61.03
2019-04-05T03:31:50.978Z,61.80
2019-04-05T03:34:20.690Z,62.37
2019-04-05T03:36:51.898Z,57.93
2019-04-05T03:39:22.843Z,62.33
2019-04-05T03:41:53.227Z,62.47
2019-04-05T03:44:23.168Z,58.63
2019-04-05T03:46:57.120Z,60.07
2019-04-05T03:49:25.698Z,59.53
2019-04-05T03:51:55.132Z,59.27
2019-04-05T03:54:24.908Z,60.47
2019-04-05T03:56:54.231Z,60.77
2019-04-05T03:59:23.875Z,61.33
2019-04-05T04:01:55.498Z,63.47
2019-04-05T04:04:24.593Z,61.97
2019-04-05T04:06:53.903Z,62.37
2019-04-05T04:09:23.437Z,62.37
2019-04-05T04:11:53.877Z,62.27
2019-04-05T04:14:24.019Z,61.80
2019-04-05T04:17:10.917Z,63.30
2019-04-05T04:19:26.025Z,65.03
2019-04-05T04:22:29.946Z,61.93
2019-04-05T04:24:59.968Z,62.23
2019-04-05T04:27:31.214Z,62.60
2019-04-05T04:30:01.407Z,64.00
2019-04-05T04:32:30.754Z,60.80
2019-04-05T04:35:00.275Z,67.33
2019-04-05T04:37:29.820Z,68.63
2019-04-05T04:39:59.370Z,65.43
2019-04-05T04:42:29.298Z,62.23
2019-04-05T04:45:11.237Z,66.30
2019-04-05T04:47:31.430Z,66.50
2019-04-05T04:50:01.018Z,70.13
2019-04-05T04:52:32.020Z,66.10
2019-04-05T04:55:01.754Z,69.97
2019-04-05T04:57:31.789Z,68.57
2019-04-05T05:00:01.127Z,91.43
2019-04-05T05:02:30.874Z,70.33
2019-04-05T05:05:00.911Z,67.33
2019-04-05T05:07:31.730Z,66.97
2019-04-05T05:10:03.269Z,64.90
2019-04-05T05:12:32.135Z,67.27
2019-04-05T05:15:01.495Z,64.77
2019-04-05T05:17:38.436Z,62.77
2019-04-05T05:20:02.063Z,64.40
2019-04-05T05:22:33.825Z,63.40
2019-04-05T05:25:03.969Z,62.50
2019-04-05T05:27:33.443Z,64.53
2019-04-05T05:30:03.363Z,64.43
2019-04-05T05:32:33.017Z,64.70
2019-04-05T05:35:02.704Z,62.87
2019-04-05T05:37:33.017Z,59.00
2019-04-05T05:40:02.459Z,63.50
2019-04-05T05:42:31.799Z,62.77
2019-04-05T05:45:01.188Z,66.67
2019-04-05T05:47:30.600Z,64.50
2019-04-05T05:49:59.957Z,65.87
2019-04-05T05:52:29.362Z,63.27
2019-04-05T05:54:58.699Z,63.67
2019-04-05T05:57:28.092Z,61.10
2019-04-05T06:00:00.221Z,61.73
2019-04-05T06:02:29.280Z,62.90
2019-04-05T06:04:58.670Z,59.37
2019-04-05T06:07:28.061Z,60.93
2019-04-05T06:09:57.512Z,61.27
2019-04-05T06:12:26.986Z,60.80
2019-04-05T06:14:56.388Z,59.57
2019-04-05T06:17:25.823Z,63.33
2019-04-05T06:19:55.290Z,62.67
2019-04-05T06:22:24.685Z,61.00
2019-04-05T06:24:54.036Z,60.53
2019-04-05T06:27:23.369Z,62.63
2019-04-05T06:29:52.706Z,59.93
2019-04-05T06:32:22.108Z,61.07
2019-04-05T06:34:51.505Z,59.77
2019-04-05T06:37:20.867Z,60.00
2019-04-05T06:39:50.293Z,61.00
2019-04-05T06:42:19.722Z,57.00
2019-04-05T06:44:49.146Z,56.57
2019-04-05T06:47:18.527Z,60.10
2019-04-05T06:49:47.817Z,59.03
2019-04-05T06:52:18.651Z,59.07
2019-04-05T06:54:48.042Z,58.73
2019-04-05T06:57:17.462Z,56.33
2019-04-05T06:59:46.861Z,55.60
2019-04-05T07:02:18.401Z,57.10
2019-04-05T07:04:47.274Z,58.77
2019-04-05T07:07:18.003Z,60.00
2019-04-05T07:09:47.502Z,57.43
2019-04-05T07:12:16.889Z,56.80
2019-04-05T07:14:46.296Z,55.27
2019-04-05T07:17:15.678Z,56.20
2019-04-05T07:19:45.062Z,58.13
2019-04-05T07:22:14.386Z,56.67
2019-04-05T07:24:43.796Z,56.57
2019-04-05T07:27:13.223Z,57.40
2019-04-05T07:29:42.658Z,55.03
2019-04-05T07:32:11.965Z,55.50
2019-04-05T07:34:41.400Z,55.03
2019-04-05T07:37:10.773Z,55.53
2019-04-05T07:39:40.176Z,55.90
2019-04-05T07:42:09.601Z,55.83
2019-04-05T07:44:39.009Z,54.70
2019-04-05T07:47:08.342Z,56.37
2019-04-05T07:49:37.682Z,53.47
2019-04-05T07:52:07.017Z,53.00
2019-04-05T07:54:36.429Z,54.17
2019-04-05T07:57:06.065Z,54.13
2019-04-05T07:59:35.399Z,54.87
2019-04-05T08:02:06.460Z,56.57
2019-04-05T08:04:35.873Z,55.80
2019-04-05T08:07:06.799Z,54.47
2019-04-05T08:09:37.820Z,57.57
2019-04-05T08:12:08.544Z,57.63
2019-04-05T08:14:39.988Z,57.93
2019-04-05T08:17:09.300Z,56.87
2019-04-05T08:19:38.703Z,54.37
2019-04-05T08:22:09.871Z,53.60
2019-04-05T08:24:39.316Z,50.93
2019-04-05T08:27:08.780Z,52.60
2019-04-05T08:29:38.224Z,51.67
2019-04-05T08:32:14.392Z,51.87
2019-04-05T08:34:38.692Z,50.43
2019-04-05T08:37:08.082Z,50.80
2019-04-05T08:39:37.499Z,52.50
2019-04-05T08:42:06.953Z,52.00
2019-04-05T08:44:36.274Z,52.40
2019-04-05T08:47:05.898Z,52.63
2019-04-05T08:49:35.265Z,50.10
2019-04-05T08:52:04.790Z,49.83
2019-04-05T08:54:36.760Z,50.83
2019-04-05T08:57:05.577Z,51.03
2019-04-05T08:59:39.905Z,52.80
2019-04-05T09:02:12.029Z,54.40
2019-04-05T09:04:41.444Z,52.07
2019-04-05T09:07:10.866Z,51.60
2019-04-05T09:09:40.195Z,52.63
2019-04-05T09:12:09.636Z,53.17
2019-04-05T09:14:38.977Z,67.33
2019-04-05T09:17:08.299Z,55.17
2019-04-05T09:19:37.643Z,55.87
2019-04-05T09:22:07.156Z,58.00
2019-04-05T09:24:36.540Z,53.03
2019-04-05T09:27:05.936Z,51.90
2019-04-05T09:29:35.371Z,54.23
2019-04-05T09:32:04.892Z,54.60
2019-04-05T09:34:34.328Z,55.47
2019-04-05T09:37:03.712Z,54.77
2019-04-05T09:39:33.116Z,54.33
2019-04-05T09:42:02.591Z,59.43
2019-04-05T09:44:31.911Z,54.27
2019-04-05T09:47:01.413Z,50.57
2019-04-05T09:49:36.660Z,53.40
2019-04-05T09:52:01.920Z,55.07
2019-04-05T09:54:31.437Z,56.77
2019-04-05T09:57:02.091Z,61.37
2019-04-05T09:59:31.525Z,63.17
2019-04-05T10:02:00.892Z,68.47
2019-04-05T10:04:31.312Z,54.33
2019-04-05T10:07:00.741Z,54.77
2019-04-05T10:09:30.137Z,50.63
2019-04-05T10:11:59.586Z,50.97
2019-04-05T10:14:28.957Z,49.87
2019-04-05T10:16:58.431Z,47.63
2019-04-05T10:19:27.725Z,49.80
2019-04-05T10:21:57.075Z,49.43
2019-04-05T10:24:26.401Z,51.87
2019-04-05T10:26:55.775Z,47.53
2019-04-05T10:29:25.182Z,48.57
2019-04-05T10:31:58.348Z,49.70
2019-04-05T10:34:27.690Z,52.77
2019-04-05T10:36:57.084Z,49.13
2019-04-05T10:39:26.440Z,48.27
2019-04-05T10:42:03.247Z,48.97
2019-04-05T10:44:26.826Z,52.60
2019-04-05T10:46:56.269Z,48.23
2019-04-05T10:49:25.556Z,48.70
2019-04-05T10:51:54.896Z,49.60
2019-04-05T10:54:24.370Z,53.37
2019-04-05T10:56:53.916Z,56.43
2019-04-05T10:59:23.337Z,47.50
2019-04-05T11:01:52.850Z,53.20
2019-04-05T11:04:22.246Z,47.73
2019-04-05T11:06:53.856Z,50.23
2019-04-05T11:09:22.877Z,50.00
2019-04-05T11:11:52.317Z,55.47
2019-04-05T11:14:21.700Z,51.70
2019-04-05T11:16:58.252Z,50.40
2019-04-05T11:19:23.205Z,50.87
2019-04-05T11:21:52.568Z,50.47
2019-04-05T11:24:22.033Z,57.63
2019-04-05T11:26:51.459Z,46.23
2019-04-05T11:29:20.885Z,52.57
2019-04-05T11:31:56.835Z,51.67
2019-04-05T11:34:21.452Z,47.97
2019-04-05T11:36:50.902Z,49.47
2019-04-05T11:39:20.843Z,49.60
2019-04-05T11:41:52.401Z,49.60
2019-04-05T11:44:22.591Z,45.87
2019-04-05T11:46:52.053Z,49.73
2019-04-05T11:49:21.958Z,48.27
2019-04-05T11:51:51.558Z,52.27
2019-04-05T11:54:21.091Z,45.47
2019-04-05T11:56:50.652Z,47.97
2019-04-05T11:59:20.054Z,46.30
2019-04-05T12:02:14.590Z,53.70
2019-04-05T12:04:44.055Z,47.97
2019-04-05T12:07:14.046Z,48.27
2019-04-05T12:09:43.598Z,44.37
2019-04-05T12:12:12.914Z,48.30
2019-04-05T12:14:42.905Z,46.17
2019-04-05T12:17:12.255Z,49.77
2019-04-05T12:19:41.582Z,48.43
2019-04-05T12:22:11.006Z,44.80
2019-04-05T12:24:40.435Z,47.53
2019-04-05T12:27:09.918Z,46.33
2019-04-05T12:29:41.094Z,44.70
2019-04-05T12:32:13.093Z,42.30
2019-04-05T12:34:41.657Z,43.10
2019-04-05T12:37:11.041Z,44.50
2019-04-05T12:39:40.502Z,45.10
2019-04-05T12:42:11.945Z,43.30
2019-04-05T12:44:44.645Z,43.33
2019-04-05T12:47:13.943Z,41.50
2019-04-05T12:49:43.375Z,39.50
2019-04-05T12:52:22.606Z,42.63
2019-04-05T12:54:45.484Z,36.93
2019-04-05T12:57:14.873Z,44.07
2019-04-05T12:59:44.375Z,41.07
2019-04-05T13:02:18.897Z,46.93
2019-04-05T13:04:44.978Z,40.30
2019-04-05T13:07:14.481Z,43.97
2019-04-05T13:09:45.666Z,43.87
2019-04-05T13:12:14.958Z,43.17
2019-04-05T13:14:44.255Z,43.90
2019-04-05T13:17:13.660Z,40.00
2019-04-05T13:19:43.032Z,42.37
2019-04-05T13:22:12.463Z,40.90
2019-04-05T13:24:41.887Z,40.57
2019-04-05T13:27:11.692Z,40.80
2019-04-05T13:29:44.479Z,41.97
2019-04-05T13:32:13.933Z,42.50
2019-04-05T13:34:43.280Z,39.67
2019-04-05T13:37:20.114Z,40.03
2019-04-05T13:39:43.678Z,41.43
2019-04-05T13:42:13.084Z,39.60
2019-04-05T13:44:42.470Z,40.73
2019-04-05T13:47:11.914Z,43.00
2019-04-05T13:49:41.503Z,42.80
2019-04-05T13:52:11.938Z,40.53
2019-04-05T13:54:42.199Z,39.73
2019-04-05T13:57:11.664Z,37.43
2019-04-05T13:59:41.108Z,37.37
2019-04-05T14:02:10.515Z,40.23
2019-04-05T14:04:40.010Z,41.10
2019-04-05T14:07:09.423Z,37.60
2019-04-05T14:09:40.702Z,52.43
2019-04-05T14:12:10.246Z,39.73
2019-04-05T14:14:41.498Z,40.90
2019-04-05T14:17:13.768Z,38.30
2019-04-05T14:19:42.982Z,40.10
2019-04-05T14:22:12.449Z,38.70
2019-04-05T14:24:41.830Z,38.93
2019-04-05T14:27:11.265Z,38.50
2019-04-05T14:29:40.736Z,39.00
2019-04-05T14:32:20.468Z,37.87
2019-04-05T14:34:41.362Z,40.57
2019-04-05T14:37:10.857Z,36.90
2019-04-05T14:39:40.300Z,35.20
2019-04-05T14:42:12.314Z,36.83
2019-04-05T14:44:42.701Z,40.27
2019-04-05T14:47:12.146Z,39.07
2019-04-05T14:49:41.560Z,39.67
2019-04-05T14:52:11.030Z,37.63
2019-04-05T14:54:43.104Z,36.67
2019-04-05T14:57:11.645Z,36.77
2019-04-05T14:59:41.119Z,36.47
2019-04-05T15:02:10.649Z,35.23
2019-04-05T15:04:40.015Z,33.77
2019-04-05T15:07:09.413Z,35.03
2019-04-05T15:09:38.735Z,36.63
2019-04-05T15:12:08.259Z,34.10
2019-04-05T15:14:37.701Z,35.63
2019-04-05T15:17:07.064Z,40.77
2019-04-05T15:19:36.573Z,39.17
2019-04-05T15:22:06.478Z,36.73
2019-04-05T15:24:37.244Z,38.43
2019-04-05T15:27:06.609Z,37.63
2019-04-05T15:29:36.080Z,38.73
2019-04-05T15:32:06.085Z,38.23
2019-04-05T15:34:35.506Z,38.00
2019-04-05T15:37:04.963Z,37.70
2019-04-05T15:39:34.353Z,36.97
2019-04-05T15:42:03.784Z,38.20
2019-04-05T15:44:33.332Z,36.40
2019-04-05T15:47:02.775Z,37.63
2019-04-05T15:49:32.238Z,37.27
2019-04-05T15:52:01.717Z,37.40
2019-04-05T15:54:33.225Z,37.43
2019-04-05T15:57:04.408Z,38.33
2019-04-05T15:59:33.887Z,44.27
2019-04-05T16:02:03.835Z,41.57
2019-04-05T16:04:33.794Z,37.83
2019-04-05T16:07:03.185Z,39.57
2019-04-05T16:09:32.510Z,36.93
2019-04-05T16:12:01.830Z,38.20
2019-04-05T16:14:31.283Z,36.43
2019-04-05T16:17:00.678Z,39.87
2019-04-05T16:19:30.133Z,35.53
2019-04-05T16:21:59.522Z,35.70
2019-04-05T16:24:28.993Z,41.27
2019-04-05T16:26:58.297Z,43.13
2019-04-05T16:29:27.732Z,41.30
2019-04-05T16:31:57.099Z,39.53
2019-04-05T16:34:26.554Z,41.60
2019-04-05T16:36:55.817Z,40.57
2019-04-05T16:39:26.477Z,38.13
2019-04-05T16:41:58.180Z,38.30
2019-04-05T16:44:27.651Z,38.83
2019-04-05T16:46:57.135Z,38.33
2019-04-05T16:49:26.549Z,36.50
2019-04-05T16:51:56.129Z,36.40
2019-04-05T16:54:25.579Z,38.17
2019-04-05T16:56:55.051Z,38.43
2019-04-05T16:59:24.361Z,38.30
2019-04-05T17:01:56.646Z,39.20
2019-04-05T17:04:24.895Z,37.30
2019-04-05T17:06:54.295Z,38.20
2019-04-05T17:09:23.711Z,37.17
2019-04-05T17:11:53.137Z,38.53
2019-04-05T17:14:23.273Z,40.20
2019-04-05T17:16:54.025Z,37.60
2019-04-05T17:19:23.457Z,39.77
2019-04-05T17:21:52.819Z,40.37
2019-04-05T17:24:22.163Z,42.80
2019-04-05T17:26:51.607Z,38.10
2019-04-05T17:29:21.622Z,37.23
2019-04-05T17:31:51.026Z,40.70
2019-04-05T17:34:20.450Z,38.03
2019-04-05T17:36:49.856Z,38.53
2019-04-05T17:39:19.293Z,36.43
2019-04-05T17:41:48.724Z,35.33
2019-04-05T17:44:18.133Z,38.77
2019-04-05T17:46:47.525Z,37.80
2019-04-05T17:49:16.900Z,37.57
2019-04-05T17:51:46.367Z,36.63
2019-04-05T17:54:15.694Z,36.20
2019-04-05T17:56:45.623Z,34.97
2019-04-05T17:59:15.088Z,35.73
2019-04-05T18:01:44.531Z,36.23
2019-04-05T18:04:15.506Z,36.93
2019-04-05T18:06:44.877Z,36.93
2019-04-05T18:09:14.812Z,38.03
2019-04-05T18:11:46.953Z,41.57
2019-04-05T18:14:16.428Z,37.13
2019-04-05T18:16:45.840Z,36.83
2019-04-05T18:19:16.324Z,38.00
2019-04-05T18:21:45.692Z,36.23
2019-04-05T18:24:16.214Z,39.17
2019-04-05T18:26:45.801Z,37.27
2019-04-05T18:29:15.295Z,37.50
2019-04-05T18:31:44.645Z,37.77
2019-04-05T18:34:14.119Z,37.27
2019-04-05T18:36:43.614Z,39.20
2019-04-05T18:39:13.441Z,39.10
2019-04-05T18:41:42.919Z,38.33
2019-04-05T18:44:12.324Z,46.43
2019-04-05T18:46:41.758Z,37.73
2019-04-05T18:49:11.506Z,41.20
2019-04-05T18:51:41.460Z,38.17
2019-04-05T18:54:11.024Z,37.97
2019-04-05T18:56:40.434Z,40.27
2019-04-05T18:59:09.782Z,37.50
2019-04-05T19:01:39.226Z,37.90
2019-04-05T19:04:08.655Z,39.37
2019-04-05T19:06:38.141Z,37.70
2019-04-05T19:09:11.586Z,38.13
2019-04-05T19:11:39.768Z,40.73
2019-04-05T19:14:09.331Z,40.43
2019-04-05T19:16:38.867Z,40.80
2019-04-05T19:19:08.281Z,38.73
2019-04-05T19:21:37.616Z,40.37
2019-04-05T19:24:07.012Z,42.57
2019-04-05T19:26:36.437Z,43.03
2019-04-05T19:29:06.023Z,40.20
2019-04-05T19:49:14.143Z,43.07
2019-04-05T19:51:43.622Z,43.33
2019-04-05T19:54:13.164Z,41.37
2019-04-05T19:56:42.564Z,42.03
2019-04-05T19:59:12.054Z,44.23
2019-04-05T20:01:41.462Z,44.20
2019-04-05T20:04:11.007Z,42.87
2019-04-05T20:06:42.627Z,42.50
2019-04-05T20:09:12.271Z,42.67
2019-04-05T20:11:41.754Z,43.80
2019-04-05T20:14:11.204Z,40.93
2019-04-05T20:16:40.626Z,43.37
2019-04-05T20:19:10.016Z,42.23
2019-04-05T20:21:39.351Z,44.43
2019-04-05T20:24:14.276Z,43.93
2019-04-05T20:26:41.209Z,46.77
2019-04-05T20:29:10.664Z,48.10
2019-04-05T20:31:40.168Z,50.40
2019-04-05T20:34:09.734Z,49.27
2019-04-05T20:36:39.080Z,45.77
2019-04-05T20:39:08.713Z,49.97
2019-04-05T20:41:38.152Z,46.37
2019-04-05T20:44:07.653Z,46.37
2019-04-05T20:46:37.003Z,44.53
2019-04-05T20:49:06.493Z,44.50
2019-04-05T20:51:35.835Z,47.73
2019-04-05T20:54:05.465Z,48.63
2019-04-05T20:56:34.906Z,47.40
2019-04-05T20:59:04.339Z,43.87
2019-04-05T21:01:33.746Z,43.13
2019-04-05T21:04:03.047Z,46.07
2019-04-05T21:06:32.554Z,43.50
2019-04-05T21:09:01.953Z,43.57
2019-04-05T21:11:31.440Z,45.50
2019-04-05T21:14:00.851Z,52.70
2019-04-05T21:16:31.338Z,56.67
2019-04-05T21:19:02.032Z,70.17
2019-04-05T21:21:31.529Z,55.40
2019-04-05T21:24:01.014Z,45.93
2019-04-05T21:26:30.460Z,45.43
2019-04-05T21:28:59.963Z,46.53
2019-04-05T21:31:29.451Z,48.73
2019-04-05T21:34:00.657Z,47.33
2019-04-05T21:36:30.163Z,47.37
2019-04-05T21:38:59.549Z,44.40
2019-04-05T21:41:29.025Z,44.10
2019-04-05T21:43:58.438Z,49.50
2019-04-05T21:46:27.906Z,47.47
2019-04-05T21:48:57.353Z,49.73
2019-04-05T21:51:27.246Z,48.90
2019-04-05T21:53:56.636Z,52.30
2019-04-05T21:56:26.080Z,45.43
2019-04-05T21:58:55.504Z,45.20
2019-04-05T22:01:26.028Z,47.37
2019-04-05T22:03:56.111Z,44.97
2019-04-05T22:06:25.625Z,48.47
2019-04-05T22:08:54.968Z,45.23
2019-04-05T22:11:24.371Z,51.03
2019-04-05T22:13:53.795Z,50.00
2019-04-05T22:16:23.220Z,46.57
2019-04-05T22:18:52.707Z,44.87
2019-04-05T22:21:22.169Z,49.50
2019-04-05T22:23:52.320Z,51.50
2019-04-05T22:26:22.552Z,43.83
2019-04-05T22:28:52.097Z,44.27
2019-04-05T22:31:23.384Z,44.27
2019-04-05T22:33:52.887Z,46.80
2019-04-05T22:36:24.220Z,43.83
2019-04-05T22:38:53.778Z,43.63
2019-04-05T22:41:23.236Z,43.20
2019-04-05T22:43:52.631Z,41.47
2019-04-05T22:46:22.030Z,45.90
2019-04-05T22:48:51.440Z,49.70
2019-04-05T22:51:20.915Z,45.23
2019-04-05T22:53:50.338Z,44.17
2019-04-05T22:56:19.817Z,44.10
2019-04-05T22:58:49.282Z,40.80
2019-04-05T23:01:18.655Z,48.27
2019-04-05T23:03:48.141Z,42.23
2019-04-05T23:06:18.464Z,46.03
2019-04-05T23:08:47.871Z,47.53
2019-04-05T23:11:17.316Z,43.90
2019-04-05T23:13:46.797Z,41.90
2019-04-05T23:16:16.267Z,44.83
2019-04-05T23:18:45.625Z,43.60
2019-04-05T23:21:16.056Z,48.33
2019-04-05T23:23:45.490Z,47.07
2019-04-05T23:26:15.945Z,40.53
2019-04-05T23:28:45.394Z,42.83
2019-04-05T23:31:14.854Z,40.80
2019-04-05T23:33:44.309Z,45.97
2019-04-05T23:36:13.637Z,45.80
2019-04-05T23:38:43.113Z,47.83
2019-04-05T23:41:12.522Z,46.73
2019-04-05T23:43:41.957Z,45.07
2019-04-05T23:46:11.410Z,37.80
2019-04-05T23:48:40.919Z,38.67
2019-04-05T23:51:10.467Z,39.37
2019-04-05T23:53:39.928Z,39.57
2019-04-05T23:56:09.378Z,40.13
2019-04-05T23:58:38.788Z,41.10
